sensor_id;sensor_type;location;lat;lon;timestamp;P1;durP1;ratioP1;P2;durP2;ratioP2
5702;SDS011;2876;51.738;10.050;2022-07-26T00:04:05;5.53;;;2.90;;
5702;SDS011;2876;51.738;10.050;2022-07-26T00:10:07;9.60;;;3.40;;
5702;SDS011;2876;51.738;10.050;2022-07-26T00:16:10;5.60;;;1.97;;
5702;SDS011;2876;51.738;10.050;2022-07-26T00:22:12;10.70;;;2.20;;
5702;SDS011;2876;51.738;10.050;2022-07-26T00:28:33;6.70;;;2.50;;
5702;SDS011;2876;51.738;10.050;2022-07-26T00:34:36;11.17;;;3.07;;
5702;SDS011;2876;51.738;10.050;2022-07-26T00:40:38;4.90;;;2.47;;
5702;SDS011;2876;51.738;10.050;2022-07-26T00:46:41;6.30;;;2.70;;
5702;SDS011;2876;51.738;10.050;2022-07-26T00:52:45;8.57;;;3.10;;
5702;SDS011;2876;51.738;10.050;2022-07-26T00:58:49;4.30;;;2.40;;
5702;SDS011;2876;51.738;10.050;2022-07-26T01:04:51;5.97;;;3.17;;
5702;SDS011;2876;51.738;10.050;2022-07-26T01:10:53;7.00;;;3.17;;
5702;SDS011;2876;51.738;10.050;2022-07-26T01:16:55;7.40;;;3.20;;
5702;SDS011;2876;51.738;10.050;2022-07-26T01:22:58;6.60;;;3.03;;
5702;SDS011;2876;51.738;10.050;2022-07-26T01:29:00;4.73;;;3.43;;
5702;SDS011;2876;51.738;10.050;2022-07-26T01:35:03;6.40;;;3.30;;
5702;SDS011;2876;51.738;10.050;2022-07-26T01:41:05;5.87;;;2.80;;
5702;SDS011;2876;51.738;10.050;2022-07-26T01:47:07;3.63;;;3.10;;
5702;SDS011;2876;51.738;10.050;2022-07-26T01:53:09;3.10;;;2.07;;
5702;SDS011;2876;51.738;10.050;2022-07-26T01:59:11;3.93;;;2.10;;
5702;SDS011;2876;51.738;10.050;2022-07-26T02:05:13;6.57;;;2.50;;
5702;SDS011;2876;51.738;10.050;2022-07-26T02:11:15;6.03;;;2.03;;
5702;SDS011;2876;51.738;10.050;2022-07-26T02:17:17;11.53;;;2.30;;
5702;SDS011;2876;51.738;10.050;2022-07-26T02:23:20;8.20;;;2.40;;
5702;SDS011;2876;51.738;10.050;2022-07-26T02:29:23;5.33;;;1.77;;
5702;SDS011;2876;51.738;10.050;2022-07-26T02:35:26;7.43;;;1.73;;
5702;SDS011;2876;51.738;10.050;2022-07-26T02:41:28;4.20;;;1.73;;
5702;SDS011;2876;51.738;10.050;2022-07-26T02:47:30;4.93;;;1.83;;
5702;SDS011;2876;51.738;10.050;2022-07-26T02:53:33;3.73;;;2.37;;
5702;SDS011;2876;51.738;10.050;2022-07-26T02:59:35;5.27;;;2.67;;
5702;SDS011;2876;51.738;10.050;2022-07-26T03:05:37;7.47;;;1.93;;
5702;SDS011;2876;51.738;10.050;2022-07-26T03:11:39;4.53;;;2.10;;
5702;SDS011;2876;51.738;10.050;2022-07-26T03:17:57;7.50;;;2.00;;
5702;SDS011;2876;51.738;10.050;2022-07-26T03:23:59;4.97;;;1.90;;
5702;SDS011;2876;51.738;10.050;2022-07-26T03:30:01;3.73;;;2.23;;
5702;SDS011;2876;51.738;10.050;2022-07-26T03:36:05;5.83;;;1.70;;
5702;SDS011;2876;51.738;10.050;2022-07-26T03:42:11;8.57;;;3.17;;
5702;SDS011;2876;51.738;10.050;2022-07-26T03:48:13;5.47;;;1.83;;
5702;SDS011;2876;51.738;10.050;2022-07-26T03:54:15;7.73;;;2.20;;
5702;SDS011;2876;51.738;10.050;2022-07-26T04:00:17;6.67;;;1.70;;
5702;SDS011;2876;51.738;10.050;2022-07-26T04:06:20;6.60;;;2.00;;
5702;SDS011;2876;51.738;10.050;2022-07-26T04:12:23;4.40;;;1.83;;
5702;SDS011;2876;51.738;10.050;2022-07-26T04:18:25;5.03;;;2.57;;
5702;SDS011;2876;51.738;10.050;2022-07-26T04:24:27;5.97;;;2.47;;
5702;SDS011;2876;51.738;10.050;2022-07-26T04:30:29;4.83;;;1.93;;
5702;SDS011;2876;51.738;10.050;2022-07-26T04:36:31;2.40;;;1.50;;
5702;SDS011;2876;51.738;10.050;2022-07-26T04:42:33;1.73;;;1.60;;
5702;SDS011;2876;51.738;10.050;2022-07-26T04:48:36;5.40;;;2.00;;
5702;SDS011;2876;51.738;10.050;2022-07-26T04:54:38;3.53;;;1.63;;
5702;SDS011;2876;51.738;10.050;2022-07-26T05:00:40;1.97;;;1.77;;
5702;SDS011;2876;51.738;10.050;2022-07-26T05:07:02;5.67;;;2.40;;
5702;SDS011;2876;51.738;10.050;2022-07-26T05:13:05;3.80;;;1.90;;
5702;SDS011;2876;51.738;10.050;2022-07-26T05:19:07;2.80;;;1.70;;
5702;SDS011;2876;51.738;10.050;2022-07-26T05:25:09;3.50;;;2.47;;
5702;SDS011;2876;51.738;10.050;2022-07-26T05:31:11;2.70;;;1.97;;
5702;SDS011;2876;51.738;10.050;2022-07-26T05:37:14;10.67;;;2.77;;
5702;SDS011;2876;51.738;10.050;2022-07-26T05:43:16;2.87;;;2.20;;
5702;SDS011;2876;51.738;10.050;2022-07-26T05:49:19;6.70;;;2.60;;
5702;SDS011;2876;51.738;10.050;2022-07-26T05:55:21;4.50;;;2.50;;
5702;SDS011;2876;51.738;10.050;2022-07-26T06:01:22;7.00;;;2.40;;
5702;SDS011;2876;51.738;10.050;2022-07-26T06:07:26;4.27;;;3.00;;
5702;SDS011;2876;51.738;10.050;2022-07-26T06:13:28;5.90;;;3.70;;
5702;SDS011;2876;51.738;10.050;2022-07-26T06:19:30;5.70;;;3.53;;
5702;SDS011;2876;51.738;10.050;2022-07-26T06:25:33;7.10;;;3.70;;
5702;SDS011;2876;51.738;10.050;2022-07-26T06:31:35;9.13;;;5.03;;
5702;SDS011;2876;51.738;10.050;2022-07-26T06:37:38;7.00;;;4.80;;
5702;SDS011;2876;51.738;10.050;2022-07-26T06:43:41;10.00;;;6.00;;
5702;SDS011;2876;51.738;10.050;2022-07-26T06:49:43;14.83;;;4.87;;
5702;SDS011;2876;51.738;10.050;2022-07-26T06:55:45;7.80;;;4.63;;
5702;SDS011;2876;51.738;10.050;2022-07-26T07:01:47;7.83;;;5.60;;
5702;SDS011;2876;51.738;10.050;2022-07-26T07:08:00;8.03;;;5.70;;
5702;SDS011;2876;51.738;10.050;2022-07-26T07:14:02;6.93;;;5.23;;
5702;SDS011;2876;51.738;10.050;2022-07-26T07:20:05;12.00;;;6.10;;
5702;SDS011;2876;51.738;10.050;2022-07-26T07:26:07;10.60;;;6.40;;
5702;SDS011;2876;51.738;10.050;2022-07-26T07:32:09;9.27;;;6.17;;
5702;SDS011;2876;51.738;10.050;2022-07-26T07:38:19;10.90;;;6.00;;
5702;SDS011;2876;51.738;10.050;2022-07-26T07:44:22;9.27;;;5.50;;
5702;SDS011;2876;51.738;10.050;2022-07-26T07:50:24;11.57;;;6.80;;
5702;SDS011;2876;51.738;10.050;2022-07-26T07:56:28;9.60;;;6.53;;
5702;SDS011;2876;51.738;10.050;2022-07-26T08:02:30;11.23;;;7.23;;
5702;SDS011;2876;51.738;10.050;2022-07-26T08:08:33;10.27;;;6.50;;
5702;SDS011;2876;51.738;10.050;2022-07-26T08:14:36;7.40;;;5.50;;
5702;SDS011;2876;51.738;10.050;2022-07-26T08:20:41;11.30;;;6.47;;
5702;SDS011;2876;51.738;10.050;2022-07-26T08:26:43;10.73;;;6.00;;
5702;SDS011;2876;51.738;10.050;2022-07-26T08:32:45;5.90;;;5.30;;
5702;SDS011;2876;51.738;10.050;2022-07-26T08:38:47;11.60;;;5.50;;
5702;SDS011;2876;51.738;10.050;2022-07-26T08:44:50;6.70;;;5.00;;
5702;SDS011;2876;51.738;10.050;2022-07-26T08:50:55;5.93;;;4.50;;
5702;SDS011;2876;51.738;10.050;2022-07-26T08:56:58;9.53;;;5.30;;
5702;SDS011;2876;51.738;10.050;2022-07-26T09:03:01;8.07;;;4.30;;
5702;SDS011;2876;51.738;10.050;2022-07-26T09:09:09;4.83;;;4.40;;
5702;SDS011;2876;51.738;10.050;2022-07-26T09:15:20;11.07;;;4.47;;
5702;SDS011;2876;51.738;10.050;2022-07-26T09:21:32;4.70;;;3.80;;
5702;SDS011;2876;51.738;10.050;2022-07-26T09:27:38;6.80;;;3.40;;
5702;SDS011;2876;51.738;10.050;2022-07-26T09:33:48;7.27;;;3.70;;
5702;SDS011;2876;51.738;10.050;2022-07-26T09:39:56;4.90;;;3.47;;
5702;SDS011;2876;51.738;10.050;2022-07-26T09:46:04;3.30;;;2.90;;
5702;SDS011;2876;51.738;10.050;2022-07-26T09:58:21;7.57;;;3.13;;
5702;SDS011;2876;51.738;10.050;2022-07-26T10:04:25;5.90;;;2.80;;
5702;SDS011;2876;51.738;10.050;2022-07-26T10:10:48;2.23;;;2.03;;
5702;SDS011;2876;51.738;10.050;2022-07-26T10:16:55;3.33;;;2.07;;
5702;SDS011;2876;51.738;10.050;2022-07-26T10:22:57;2.97;;;2.47;;
5702;SDS011;2876;51.738;10.050;2022-07-26T10:29:21;2.93;;;2.30;;
5702;SDS011;2876;51.738;10.050;2022-07-26T10:54:29;4.00;;;2.23;;
5702;SDS011;2876;51.738;10.050;2022-07-26T11:00:32;2.20;;;1.90;;
5702;SDS011;2876;51.738;10.050;2022-07-26T11:06:34;1.73;;;1.63;;
5702;SDS011;2876;51.738;10.050;2022-07-26T11:12:36;1.90;;;1.40;;
5702;SDS011;2876;51.738;10.050;2022-07-26T11:18:39;2.00;;;1.67;;
5702;SDS011;2876;51.738;10.050;2022-07-26T11:24:41;2.30;;;2.10;;
5702;SDS011;2876;51.738;10.050;2022-07-26T11:30:54;2.53;;;1.60;;
5702;SDS011;2876;51.738;10.050;2022-07-26T11:37:01;2.33;;;1.37;;
5702;SDS011;2876;51.738;10.050;2022-07-26T11:43:05;3.23;;;1.60;;
5702;SDS011;2876;51.738;10.050;2022-07-26T11:49:14;6.53;;;1.50;;
5702;SDS011;2876;51.738;10.050;2022-07-26T11:55:44;3.97;;;1.60;;
5702;SDS011;2876;51.738;10.050;2022-07-26T12:01:47;2.10;;;1.20;;
5702;SDS011;2876;51.738;10.050;2022-07-26T12:14:04;1.50;;;1.20;;
5702;SDS011;2876;51.738;10.050;2022-07-26T12:20:13;2.23;;;1.10;;
5702;SDS011;2876;51.738;10.050;2022-07-26T12:26:19;2.70;;;1.23;;
5702;SDS011;2876;51.738;10.050;2022-07-26T12:32:31;1.87;;;1.20;;
5702;SDS011;2876;51.738;10.050;2022-07-26T12:38:39;1.63;;;1.53;;
5702;SDS011;2876;51.738;10.050;2022-07-26T12:44:41;1.30;;;1.20;;
5702;SDS011;2876;51.738;10.050;2022-07-26T12:50:43;1.90;;;1.40;;
5702;SDS011;2876;51.738;10.050;2022-07-26T12:56:45;3.40;;;1.83;;
5702;SDS011;2876;51.738;10.050;2022-07-26T13:02:48;4.17;;;1.60;;
5702;SDS011;2876;51.738;10.050;2022-07-26T13:08:51;2.97;;;1.40;;
5702;SDS011;2876;51.738;10.050;2022-07-26T13:14:54;4.50;;;1.10;;
5702;SDS011;2876;51.738;10.050;2022-07-26T13:20:56;1.70;;;1.13;;
5702;SDS011;2876;51.738;10.050;2022-07-26T13:26:58;2.40;;;1.70;;
5702;SDS011;2876;51.738;10.050;2022-07-26T13:33:02;1.43;;;1.13;;
5702;SDS011;2876;51.738;10.050;2022-07-26T13:39:04;1.37;;;1.23;;
5702;SDS011;2876;51.738;10.050;2022-07-26T13:45:06;1.60;;;1.30;;
5702;SDS011;2876;51.738;10.050;2022-07-26T13:51:09;1.37;;;1.00;;
5702;SDS011;2876;51.738;10.050;2022-07-26T13:57:11;3.50;;;1.47;;
5702;SDS011;2876;51.738;10.050;2022-07-26T14:03:13;2.70;;;1.50;;
5702;SDS011;2876;51.738;10.050;2022-07-26T14:09:16;2.37;;;1.17;;
5702;SDS011;2876;51.738;10.050;2022-07-26T14:15:20;1.53;;;1.20;;
5702;SDS011;2876;51.738;10.050;2022-07-26T14:21:24;1.73;;;1.40;;
5702;SDS011;2876;51.738;10.050;2022-07-26T14:27:45;3.23;;;1.40;;
5702;SDS011;2876;51.738;10.050;2022-07-26T14:33:47;2.70;;;2.50;;
5702;SDS011;2876;51.738;10.050;2022-07-26T14:39:49;5.47;;;1.17;;
5702;SDS011;2876;51.738;10.050;2022-07-26T14:45:52;4.50;;;1.23;;
5702;SDS011;2876;51.738;10.050;2022-07-26T14:51:54;1.47;;;1.30;;
5702;SDS011;2876;51.738;10.050;2022-07-26T14:57:56;4.63;;;1.33;;
5702;SDS011;2876;51.738;10.050;2022-07-26T15:03:58;3.53;;;1.37;;
5702;SDS011;2876;51.738;10.050;2022-07-26T15:10:00;1.53;;;1.10;;
5702;SDS011;2876;51.738;10.050;2022-07-26T15:16:04;2.67;;;1.07;;
5702;SDS011;2876;51.738;10.050;2022-07-26T15:22:06;2.70;;;1.27;;
5702;SDS011;2876;51.738;10.050;2022-07-26T15:28:09;2.60;;;1.10;;
5702;SDS011;2876;51.738;10.050;2022-07-26T15:34:11;9.47;;;1.43;;
5702;SDS011;2876;51.738;10.050;2022-07-26T15:40:14;3.80;;;1.53;;
5702;SDS011;2876;51.738;10.050;2022-07-26T15:46:16;2.53;;;1.20;;
5702;SDS011;2876;51.738;10.050;2022-07-26T15:52:21;1.67;;;1.10;;
5702;SDS011;2876;51.738;10.050;2022-07-26T15:58:23;1.20;;;1.10;;
5702;SDS011;2876;51.738;10.050;2022-07-26T16:04:27;1.43;;;1.10;;
5702;SDS011;2876;51.738;10.050;2022-07-26T16:10:29;1.57;;;1.30;;
5702;SDS011;2876;51.738;10.050;2022-07-26T16:16:31;1.37;;;1.10;;
5702;SDS011;2876;51.738;10.050;2022-07-26T16:22:33;4.10;;;1.23;;
5702;SDS011;2876;51.738;10.050;2022-07-26T16:28:35;2.20;;;1.07;;
5702;SDS011;2876;51.738;10.050;2022-07-26T16:34:38;1.67;;;1.10;;
5702;SDS011;2876;51.738;10.050;2022-07-26T16:40:40;3.07;;;1.20;;
5702;SDS011;2876;51.738;10.050;2022-07-26T16:46:42;3.70;;;1.33;;
5702;SDS011;2876;51.738;10.050;2022-07-26T16:52:45;1.93;;;1.20;;
5702;SDS011;2876;51.738;10.050;2022-07-26T16:58:47;1.47;;;1.20;;
5702;SDS011;2876;51.738;10.050;2022-07-26T17:04:49;5.17;;;1.77;;
5702;SDS011;2876;51.738;10.050;2022-07-26T17:10:51;1.20;;;1.10;;
5702;SDS011;2876;51.738;10.050;2022-07-26T17:16:53;1.80;;;1.20;;
5702;SDS011;2876;51.738;10.050;2022-07-26T17:22:55;3.20;;;1.40;;
5702;SDS011;2876;51.738;10.050;2022-07-26T17:28:57;1.40;;;1.30;;
5702;SDS011;2876;51.738;10.050;2022-07-26T17:34:59;7.37;;;1.50;;
5702;SDS011;2876;51.738;10.050;2022-07-26T17:41:01;3.37;;;1.63;;
5702;SDS011;2876;51.738;10.050;2022-07-26T17:47:05;2.50;;;1.23;;
5702;SDS011;2876;51.738;10.050;2022-07-26T17:53:27;2.43;;;0.97;;
5702;SDS011;2876;51.738;10.050;2022-07-26T17:59:34;2.10;;;1.03;;
5702;SDS011;2876;51.738;10.050;2022-07-26T18:05:36;3.80;;;1.60;;
5702;SDS011;2876;51.738;10.050;2022-07-26T18:11:41;2.10;;;1.10;;
5702;SDS011;2876;51.738;10.050;2022-07-26T18:17:43;1.77;;;1.10;;
5702;SDS011;2876;51.738;10.050;2022-07-26T18:23:45;1.47;;;1.00;;
5702;SDS011;2876;51.738;10.050;2022-07-26T18:30:07;4.53;;;1.40;;
5702;SDS011;2876;51.738;10.050;2022-07-26T18:36:10;3.00;;;1.00;;
5702;SDS011;2876;51.738;10.050;2022-07-26T18:42:12;1.63;;;1.30;;
5702;SDS011;2876;51.738;10.050;2022-07-26T18:48:14;6.23;;;1.60;;
5702;SDS011;2876;51.738;10.050;2022-07-26T18:54:16;2.23;;;1.20;;
5702;SDS011;2876;51.738;10.050;2022-07-26T19:00:19;1.43;;;1.10;;
5702;SDS011;2876;51.738;10.050;2022-07-26T19:06:22;2.73;;;1.00;;
5702;SDS011;2876;51.738;10.050;2022-07-26T19:12:25;2.60;;;1.40;;
5702;SDS011;2876;51.738;10.050;2022-07-26T19:18:28;1.70;;;1.27;;
5702;SDS011;2876;51.738;10.050;2022-07-26T19:24:30;3.90;;;1.53;;
5702;SDS011;2876;51.738;10.050;2022-07-26T19:30:32;3.57;;;1.40;;
5702;SDS011;2876;51.738;10.050;2022-07-26T19:36:35;3.30;;;1.30;;
5702;SDS011;2876;51.738;10.050;2022-07-26T19:42:37;5.00;;;1.60;;
5702;SDS011;2876;51.738;10.050;2022-07-26T19:48:39;4.87;;;1.73;;
5702;SDS011;2876;51.738;10.050;2022-07-26T19:54:41;1.83;;;1.43;;
5702;SDS011;2876;51.738;10.050;2022-07-26T20:00:43;4.20;;;1.43;;
5702;SDS011;2876;51.738;10.050;2022-07-26T20:06:45;3.63;;;1.50;;
5702;SDS011;2876;51.738;10.050;2022-07-26T20:12:48;2.10;;;1.80;;
5702;SDS011;2876;51.738;10.050;2022-07-26T20:18:50;4.60;;;2.10;;
5702;SDS011;2876;51.738;10.050;2022-07-26T20:24:52;3.27;;;1.70;;
5702;SDS011;2876;51.738;10.050;2022-07-26T20:30:56;4.70;;;1.70;;
5702;SDS011;2876;51.738;10.050;2022-07-26T20:36:58;3.53;;;1.73;;
5702;SDS011;2876;51.738;10.050;2022-07-26T20:43:00;1.67;;;1.57;;
5702;SDS011;2876;51.738;10.050;2022-07-26T20:49:02;2.73;;;1.70;;
5702;SDS011;2876;51.738;10.050;2022-07-26T20:55:04;15.50;;;2.13;;
5702;SDS011;2876;51.738;10.050;2022-07-26T21:01:07;5.53;;;1.70;;
5702;SDS011;2876;51.738;10.050;2022-07-26T21:07:10;4.97;;;1.73;;
5702;SDS011;2876;51.738;10.050;2022-07-26T21:13:12;3.10;;;1.50;;
5702;SDS011;2876;51.738;10.050;2022-07-26T21:19:15;4.13;;;2.17;;
5702;SDS011;2876;51.738;10.050;2022-07-26T21:25:17;4.10;;;1.57;;
5702;SDS011;2876;51.738;10.050;2022-07-26T21:31:19;5.57;;;2.70;;
5702;SDS011;2876;51.738;10.050;2022-07-26T21:37:21;5.93;;;1.90;;
5702;SDS011;2876;51.738;10.050;2022-07-26T21:43:23;5.97;;;2.33;;
5702;SDS011;2876;51.738;10.050;2022-07-26T21:49:25;4.43;;;1.90;;
5702;SDS011;2876;51.738;10.050;2022-07-26T21:55:27;3.70;;;1.80;;
5702;SDS011;2876;51.738;10.050;2022-07-26T22:01:30;4.60;;;2.10;;
5702;SDS011;2876;51.738;10.050;2022-07-26T22:07:32;3.97;;;2.17;;
5702;SDS011;2876;51.738;10.050;2022-07-26T22:13:34;2.70;;;1.83;;
5702;SDS011;2876;51.738;10.050;2022-07-26T22:19:37;4.30;;;2.00;;
5702;SDS011;2876;51.738;10.050;2022-07-26T22:25:39;4.00;;;1.60;;
5702;SDS011;2876;51.738;10.050;2022-07-26T22:31:41;4.23;;;2.23;;
5702;SDS011;2876;51.738;10.050;2022-07-26T22:37:43;2.13;;;1.87;;
5702;SDS011;2876;51.738;10.050;2022-07-26T22:43:45;4.27;;;2.00;;
5702;SDS011;2876;51.738;10.050;2022-07-26T22:49:47;3.60;;;1.93;;
5702;SDS011;2876;51.738;10.050;2022-07-26T22:55:49;3.10;;;1.50;;
5702;SDS011;2876;51.738;10.050;2022-07-26T23:01:52;3.93;;;1.70;;
5702;SDS011;2876;51.738;10.050;2022-07-26T23:07:57;4.20;;;2.37;;
5702;SDS011;2876;51.738;10.050;2022-07-26T23:14:04;5.23;;;2.07;;
5702;SDS011;2876;51.738;10.050;2022-07-26T23:20:06;4.30;;;1.80;;
5702;SDS011;2876;51.738;10.050;2022-07-26T23:26:11;9.23;;;1.80;;
5702;SDS011;2876;51.738;10.050;2022-07-26T23:32:13;4.80;;;1.50;;
5702;SDS011;2876;51.738;10.050;2022-07-26T23:38:15;4.10;;;1.73;;
5702;SDS011;2876;51.738;10.050;2022-07-26T23:44:17;3.33;;;1.57;;
5702;SDS011;2876;51.738;10.050;2022-07-26T23:50:19;7.20;;;1.73;;
5702;SDS011;2876;51.738;10.050;2022-07-26T23:56:21;1.90;;;1.57;;
